createdAt,value
2022-08-18T00:01:32.424Z,99977.09
2022-08-18T00:04:48.830Z,99977.78
2022-08-18T00:07:54.136Z,99974.28
2022-08-18T00:10:58.575Z,99965.72
2022-08-18T00:14:03.249Z,99961.00
2022-08-18T00:17:06.844Z,99956.06
2022-08-18T00:20:13.150Z,99960.53
2022-08-18T00:23:16.342Z,99959.94
2022-08-18T00:26:22.475Z,99959.62
2022-08-18T00:29:27.925Z,99949.06
2022-08-18T00:32:36.832Z,99953.97
2022-08-18T00:35:40.196Z,99951.81
2022-08-18T00:38:45.405Z,99955.94
2022-08-18T00:41:49.346Z,99955.94
2022-08-18T00:44:52.385Z,99961.50
2022-08-18T00:47:56.033Z,99958.38
2022-08-18T00:51:05.965Z,99959.66
2022-08-18T00:54:15.375Z,99966.94
2022-08-18T00:57:21.587Z,99969.31
2022-08-18T01:00:27.119Z,99973.78
2022-08-18T01:03:33.876Z,99981.38
2022-08-18T01:06:51.915Z,99982.97
2022-08-18T01:09:55.212Z,99979.16
2022-08-18T01:13:01.475Z,99975.09
2022-08-18T01:16:52.334Z,99975.75
2022-08-18T01:20:24.741Z,99980.97
2022-08-18T01:23:33.411Z,99985.53
2022-08-18T01:26:45.638Z,99991.09
2022-08-18T01:30:17.911Z,99992.25
2022-08-18T01:33:45.046Z,99988.28
2022-08-18T01:36:47.917Z,99985.16
2022-08-18T01:41:27.331Z,99983.56
2022-08-18T01:43:15.626Z,99984.84
2022-08-18T01:46:20.656Z,99993.25
2022-08-18T01:49:23.397Z,99995.47
2022-08-18T01:52:26.341Z,99991.34
2022-08-18T01:55:31.490Z,99994.37
2022-08-18T01:58:36.349Z,99991.22
2022-08-18T02:01:50.404Z,99991.69
2022-08-18T02:05:05.653Z,100000.19
2022-08-18T02:08:12.714Z,99993.91
2022-08-18T02:11:15.978Z,99996.59
2022-08-18T02:14:18.977Z,99997.38
2022-08-18T02:17:42.092Z,99999.44
2022-08-18T02:20:44.898Z,99990.28
2022-08-18T02:23:53.235Z,99988.03
2022-08-18T02:26:58.857Z,99996.09
2022-08-18T02:30:05.892Z,99994.56
2022-08-18T02:33:10.972Z,100002.13
2022-08-18T02:36:14.477Z,99998.63
2022-08-18T02:39:17.927Z,99997.84
2022-08-18T02:42:23.170Z,99999.16
2022-08-18T02:45:29.069Z,100011.00
2022-08-18T02:48:36.053Z,100008.50
2022-08-18T02:51:41.450Z,100000.88
2022-08-18T02:54:44.669Z,100005.00
2022-08-18T02:57:49.047Z,100010.69
2022-08-18T03:00:53.156Z,100014.50
2022-08-18T03:03:58.107Z,100011.34
2022-08-18T03:07:04.978Z,100011.97
2022-08-18T03:10:32.847Z,100013.56
2022-08-18T03:13:36.180Z,100019.28
2022-08-18T03:16:52.873Z,100011.53
2022-08-18T03:19:57.854Z,100022.59
2022-08-18T03:23:09.639Z,100028.28
2022-08-18T03:26:15.437Z,100032.41
2022-08-18T03:29:18.732Z,100035.72
2022-08-18T03:32:23.759Z,100042.34
2022-08-18T03:35:27.960Z,100034.47
2022-08-18T03:38:31.208Z,100043.63
2022-08-18T03:41:58.767Z,100046.31
2022-08-18T03:45:12.505Z,100041.41
2022-08-18T03:52:18.912Z,100028.41
2022-08-18T03:55:22.118Z,100030.44
2022-08-18T03:58:27.279Z,100029.81
2022-08-18T04:01:36.638Z,100030.75
2022-08-18T04:04:43.056Z,100023.00
2022-08-18T04:07:46.103Z,100027.06
2022-08-18T04:10:50.887Z,100025.78
2022-08-18T04:13:58.008Z,100028.75
2022-08-18T04:17:01.440Z,100036.31
2022-08-18T04:20:05.652Z,100037.69
2022-08-18T04:23:08.547Z,100036.69
2022-08-18T04:26:19.201Z,100039.16
2022-08-18T04:29:25.604Z,100033.56
2022-08-18T04:32:33.993Z,100028.00
2022-08-18T04:35:39.075Z,100032.09
2022-08-18T04:38:45.100Z,100038.34
2022-08-18T04:41:48.756Z,100026.75
2022-08-18T04:44:53.969Z,100034.88
2022-08-18T04:47:58.503Z,100028.66
2022-08-18T04:51:10.090Z,100032.16
2022-08-18T04:54:13.643Z,100033.34
2022-08-18T04:57:19.586Z,100027.75
2022-08-18T05:00:25.273Z,100039.00
2022-08-18T05:03:28.740Z,100046.03
2022-08-18T05:06:35.492Z,100037.06
2022-08-18T05:09:41.884Z,100030.81
2022-08-18T05:12:48.087Z,100033.97
2022-08-18T05:16:10.033Z,100034.63
2022-08-18T05:19:26.695Z,100031.81
2022-08-18T05:22:31.790Z,100022.97
2022-08-18T05:25:34.788Z,100027.91
2022-08-18T05:28:38.373Z,100026.78
2022-08-18T05:31:42.237Z,100031.72
2022-08-18T05:34:50.005Z,100030.78
2022-08-18T05:38:11.697Z,100033.34
2022-08-18T05:41:24.436Z,100032.22
2022-08-18T05:44:32.091Z,100036.44
2022-08-18T05:47:39.230Z,100041.38
2022-08-18T05:50:44.640Z,100044.03
2022-08-18T05:54:10.356Z,100042.50
2022-08-18T05:57:19.956Z,100039.06
2022-08-18T06:00:28.986Z,100043.94
2022-08-18T06:03:46.178Z,100038.34
2022-08-18T06:06:51.653Z,100042.44
2022-08-18T06:09:56.936Z,100047.41
2022-08-18T06:13:02.919Z,100052.72
2022-08-18T06:16:31.580Z,100054.28
2022-08-18T06:20:02.712Z,100061.19
2022-08-18T06:23:30.040Z,100058.78
2022-08-18T06:27:20.907Z,100054.56
2022-08-18T06:30:37.504Z,100058.41
2022-08-18T06:33:55.677Z,100059.94
2022-08-18T06:37:11.145Z,100059.56
2022-08-18T06:40:14.172Z,100054.59
2022-08-18T06:43:18.463Z,100051.09
2022-08-18T06:46:44.073Z,100053.00
2022-08-18T06:50:05.551Z,100054.56
2022-08-18T06:53:26.764Z,100054.09
2022-08-18T06:56:40.947Z,100056.19
2022-08-18T06:59:57.707Z,100051.38
2022-08-18T07:03:05.036Z,100040.63
2022-08-18T07:06:28.621Z,100040.09
2022-08-18T07:09:34.238Z,100045.84
2022-08-18T07:12:38.883Z,100045.16
2022-08-18T07:15:41.746Z,100045.41
2022-08-18T07:18:47.001Z,100039.41
2022-08-18T07:22:13.508Z,100035.25
2022-08-18T07:25:28.459Z,100034.94
2022-08-18T07:28:40.409Z,100031.06
2022-08-18T07:32:29.771Z,100037.84
2022-08-18T07:35:42.867Z,100040.25
2022-08-18T07:39:00.822Z,100046.28
2022-08-18T07:42:50.629Z,100032.06
2022-08-18T07:45:49.277Z,100035.97
2022-08-18T07:48:52.808Z,100034.06
2022-08-18T07:52:16.335Z,100028.69
2022-08-18T07:55:38.074Z,100027.53
2022-08-18T07:58:54.470Z,100036.13
2022-08-18T08:02:39.188Z,100028.28
2022-08-18T08:05:45.519Z,100039.59
2022-08-18T08:09:18.122Z,100050.00
2022-08-18T08:12:31.260Z,100058.41
2022-08-18T08:15:58.072Z,100068.34
2022-08-18T08:19:58.782Z,100065.66
2022-08-18T08:23:06.612Z,100076.72
2022-08-18T08:26:39.467Z,100075.53
2022-08-18T08:29:55.330Z,100080.06
2022-08-18T08:33:52.303Z,100084.34
2022-08-18T08:37:20.149Z,100074.59
2022-08-18T08:40:48.514Z,100078.66
2022-08-18T08:44:58.061Z,100079.28
2022-08-18T08:48:23.666Z,100080.50
2022-08-18T08:51:58.296Z,100063.81
2022-08-18T08:55:28.076Z,100061.16
2022-08-18T08:59:00.390Z,100064.13
2022-08-18T09:02:47.895Z,100055.84
2022-08-18T09:06:14.823Z,100060.91
2022-08-18T09:09:53.323Z,100055.06
2022-08-18T09:13:06.553Z,100054.37
2022-08-18T09:16:58.144Z,100043.41
2022-08-18T09:20:44.468Z,100034.56
2022-08-18T09:24:18.948Z,100031.25
2022-08-18T09:28:11.013Z,100030.44
2022-08-18T09:31:20.436Z,100025.19
2022-08-18T09:35:05.491Z,100035.31
2022-08-18T09:38:58.870Z,100028.62
2022-08-18T09:42:30.100Z,100028.66
2022-08-18T09:45:34.388Z,100025.47
2022-08-18T09:49:24.369Z,100013.00
2022-08-18T09:53:39.744Z,100003.53
2022-08-18T09:57:41.993Z,99998.63
2022-08-18T10:01:40.789Z,99990.41
2022-08-18T10:05:20.395Z,99979.31
2022-08-18T10:08:51.804Z,99976.28
2022-08-18T10:12:23.685Z,99969.00
2022-08-18T10:15:38.148Z,99966.69
2022-08-18T10:19:12.322Z,99967.22
2022-08-18T10:22:43.615Z,99962.37
2022-08-18T10:25:47.406Z,99963.37
2022-08-18T10:29:05.112Z,99962.97
2022-08-18T10:32:44.402Z,99964.16
2022-08-18T10:39:43.067Z,99968.53
2022-08-18T10:43:45.258Z,99958.34
2022-08-18T10:46:46.746Z,99953.56
2022-08-18T10:50:26.575Z,99955.84
2022-08-18T10:53:55.213Z,99954.44
2022-08-18T10:57:23.886Z,99948.94
2022-08-18T11:00:45.358Z,99943.28
2022-08-18T11:04:11.710Z,99944.16
2022-08-18T11:07:53.442Z,99943.50
2022-08-18T11:11:58.423Z,99951.06
2022-08-18T11:15:42.387Z,99943.28
2022-08-18T11:18:49.967Z,99939.41
2022-08-18T11:22:02.587Z,99922.41
2022-08-18T11:25:34.860Z,99923.13
2022-08-18T11:28:58.591Z,99921.19
2022-08-18T11:35:50.948Z,99910.75
2022-08-18T11:38:58.089Z,99918.53
2022-08-18T11:46:04.542Z,99901.34
2022-08-18T11:49:59.079Z,99896.34
2022-08-18T11:53:27.289Z,99897.69
2022-08-18T12:00:00.585Z,99863.69
2022-08-18T12:03:10.634Z,99887.09
2022-08-18T12:10:28.493Z,99870.50
2022-08-18T12:13:32.473Z,99866.28
2022-08-18T12:16:46.495Z,99863.34
2022-08-18T12:19:51.552Z,99850.41
2022-08-18T12:23:18.496Z,99852.50
2022-08-18T12:26:47.666Z,99852.75
2022-08-18T12:29:53.583Z,99847.16
2022-08-18T12:33:08.124Z,99833.63
2022-08-18T12:36:15.780Z,99832.91
2022-08-18T12:39:23.287Z,99824.41
2022-08-18T12:42:27.405Z,99825.91
2022-08-18T12:45:31.392Z,99826.50
2022-08-18T12:48:39.131Z,99824.59
2022-08-18T12:51:43.704Z,99823.81
2022-08-18T12:54:55.498Z,99829.62
2022-08-18T12:58:01.783Z,99840.94
2022-08-18T13:01:04.793Z,99840.56
2022-08-18T13:04:13.202Z,99844.47
2022-08-18T13:07:19.030Z,99850.13
2022-08-18T13:10:45.579Z,99845.44
2022-08-18T13:13:47.008Z,99847.44
2022-08-18T13:16:59.647Z,99863.34
2022-08-18T13:20:13.544Z,99855.97
2022-08-18T13:23:25.309Z,99853.12
2022-08-18T13:26:49.441Z,99851.63
2022-08-18T13:29:57.324Z,99854.63
2022-08-18T13:33:05.374Z,99860.62
2022-08-18T13:36:46.190Z,99855.50
2022-08-18T13:39:52.894Z,99859.62
2022-08-18T13:42:58.002Z,99853.16
2022-08-18T13:46:01.398Z,99845.47
2022-08-18T13:49:07.907Z,99843.56
2022-08-18T13:52:32.972Z,99841.75
2022-08-18T13:55:39.930Z,99845.91
2022-08-18T13:58:53.285Z,99851.25
2022-08-18T14:02:08.359Z,99855.81
2022-08-18T14:05:14.686Z,99846.47
2022-08-18T14:08:20.486Z,99848.87
2022-08-18T14:11:32.872Z,99846.91
2022-08-18T14:14:36.360Z,99849.97
2022-08-18T14:17:39.901Z,99853.41
2022-08-18T14:21:02.898Z,99856.47
2022-08-18T14:24:27.882Z,99854.59
2022-08-18T14:27:38.825Z,99858.03
2022-08-18T14:30:50.879Z,99857.81
2022-08-18T14:34:04.734Z,99853.56
2022-08-18T14:37:28.399Z,99859.19
2022-08-18T14:40:33.513Z,99866.72
2022-08-18T14:44:11.122Z,99863.66
2022-08-18T14:47:24.407Z,99863.22
2022-08-18T14:50:52.500Z,99868.12
2022-08-18T14:53:55.428Z,99861.22
2022-08-18T14:57:02.686Z,99856.37
2022-08-18T15:00:12.746Z,99852.66
2022-08-18T15:03:16.262Z,99867.19
2022-08-18T15:06:23.018Z,99855.75
2022-08-18T15:09:32.385Z,99852.81
2022-08-18T15:12:37.148Z,99850.28
2022-08-18T15:15:51.738Z,99829.78
2022-08-18T15:18:56.989Z,99838.78
2022-08-18T15:22:18.912Z,99845.16
2022-08-18T15:25:40.847Z,99838.63
2022-08-18T15:28:46.609Z,99841.63
2022-08-18T15:31:56.599Z,99842.22
2022-08-18T15:35:26.614Z,99841.84
2022-08-18T15:38:30.318Z,99838.66
2022-08-18T15:41:44.371Z,99848.75
2022-08-18T15:44:53.847Z,99843.72
2022-08-18T15:47:59.461Z,99854.47
2022-08-18T15:51:11.569Z,99854.03
2022-08-18T15:54:19.521Z,99851.22
2022-08-18T15:57:39.501Z,99847.75
2022-08-18T16:00:52.584Z,99848.72
2022-08-18T16:04:05.613Z,99833.72
2022-08-18T16:07:14.122Z,99835.38
2022-08-18T16:10:24.647Z,99827.69
2022-08-18T16:13:31.276Z,99830.41
2022-08-18T16:16:36.079Z,99821.31
2022-08-18T16:20:03.371Z,99827.13
2022-08-18T16:23:29.630Z,99828.91
2022-08-18T16:26:56.051Z,99822.00
2022-08-18T16:30:42.929Z,99830.63
2022-08-18T16:34:31.025Z,99827.03
2022-08-18T16:37:39.444Z,99832.28
2022-08-18T16:41:15.398Z,99828.63
2022-08-18T16:44:22.238Z,99825.78
2022-08-18T16:47:47.547Z,99830.75
2022-08-18T16:51:14.426Z,99825.00
2022-08-18T16:54:20.994Z,99822.12
2022-08-18T16:57:53.900Z,99825.16
2022-08-18T17:01:25.581Z,99816.72
2022-08-18T17:04:41.016Z,99810.75
2022-08-18T17:07:46.067Z,99813.44
2022-08-18T17:10:55.482Z,99796.78
2022-08-18T17:14:00.876Z,99797.81
2022-08-18T17:17:29.960Z,99794.94
2022-08-18T17:21:08.977Z,99792.84
2022-08-18T17:25:02.061Z,99790.41
2022-08-18T17:28:35.109Z,99780.06
2022-08-18T17:31:54.197Z,99778.31
2022-08-18T17:35:25.077Z,99772.19
2022-08-18T17:38:59.236Z,99763.75
2022-08-18T17:42:29.477Z,99753.69
2022-08-18T17:46:03.865Z,99734.59
2022-08-18T17:49:54.241Z,99743.59
2022-08-18T17:53:39.334Z,99748.31
2022-08-18T17:57:11.932Z,99753.06
2022-08-18T18:00:20.345Z,99756.97
2022-08-18T18:03:44.936Z,99771.03
2022-08-18T18:07:24.494Z,99774.19
2022-08-18T18:11:08.374Z,99775.28
2022-08-18T18:14:39.854Z,99771.78
2022-08-18T18:17:43.751Z,99784.59
2022-08-18T18:20:55.760Z,99786.91
2022-08-18T18:24:50.610Z,99783.75
2022-08-18T18:27:53.966Z,99793.78
2022-08-18T18:31:31.160Z,99794.94
2022-08-18T18:35:54.808Z,99800.69
2022-08-18T18:39:09.088Z,99809.53
2022-08-18T18:42:34.979Z,99813.38
2022-08-18T18:46:07.560Z,99818.72
2022-08-18T18:49:39.720Z,99819.44
2022-08-18T18:53:45.992Z,99834.50
2022-08-18T19:01:14.256Z,99821.62
2022-08-18T19:05:08.155Z,99815.88
2022-08-18T19:09:23.383Z,99807.75
2022-08-18T19:13:33.380Z,99815.94
2022-08-18T19:17:40.351Z,99817.87
2022-08-18T19:22:03.407Z,99820.16
2022-08-18T19:24:43.334Z,99820.56
2022-08-18T19:28:15.325Z,99818.28
2022-08-18T19:31:49.961Z,99818.66
2022-08-18T19:34:57.593Z,99816.34
2022-08-18T19:38:39.713Z,99816.28
2022-08-18T19:42:35.435Z,99810.84
2022-08-18T19:46:38.844Z,99808.63
2022-08-18T19:50:37.272Z,99819.47
2022-08-18T19:54:57.295Z,99823.69
2022-08-18T19:58:27.436Z,99819.75
2022-08-18T20:01:52.179Z,99819.34
2022-08-18T20:05:55.519Z,99816.63
2022-08-18T20:09:33.287Z,99820.50
2022-08-18T20:13:03.371Z,99817.00
2022-08-18T20:17:12.429Z,99817.75
2022-08-18T20:21:16.759Z,99820.03
2022-08-18T20:25:05.920Z,99830.09
2022-08-18T20:28:13.047Z,99819.22
2022-08-18T20:31:23.051Z,99809.13
2022-08-18T20:34:30.898Z,99814.50
2022-08-18T20:37:35.671Z,99803.63
2022-08-18T20:40:47.852Z,99810.97
2022-08-18T20:44:29.193Z,99810.16
2022-08-18T20:47:47.976Z,99804.38
2022-08-18T20:50:54.277Z,99822.25
2022-08-18T20:54:32.382Z,99819.88
2022-08-18T20:58:01.733Z,99828.41
2022-08-18T21:01:29.728Z,99826.81
2022-08-18T21:05:02.182Z,99837.25
2022-08-18T21:08:29.355Z,99840.72
2022-08-18T21:11:49.880Z,99854.31
2022-08-18T21:14:55.044Z,99848.47
2022-08-18T21:18:22.689Z,99860.06
2022-08-18T21:21:36.732Z,99866.94
2022-08-18T21:24:50.441Z,99876.19
2022-08-18T21:28:58.681Z,99875.41
2022-08-18T21:32:41.483Z,99877.22
2022-08-18T21:36:14.643Z,99875.56
2022-08-18T21:39:53.551Z,99878.19
2022-08-18T21:43:49.544Z,99888.16
2022-08-18T21:47:33.325Z,99889.63
2022-08-18T21:51:23.706Z,99897.25
2022-08-18T21:54:51.794Z,99899.09
2022-08-18T21:59:08.269Z,99905.53
2022-08-18T22:02:33.599Z,99905.44
2022-08-18T22:06:03.168Z,99906.16
2022-08-18T22:09:28.223Z,99914.56
2022-08-18T22:13:16.353Z,99928.09
2022-08-18T22:16:40.195Z,99933.44
2022-08-18T22:20:42.643Z,99936.16
2022-08-18T22:24:19.504Z,99930.63
2022-08-18T22:27:30.022Z,99948.03
2022-08-18T22:30:53.210Z,99943.13
2022-08-18T22:34:05.410Z,99949.13
2022-08-18T22:37:37.211Z,99957.13
2022-08-18T22:41:01.895Z,99955.44
2022-08-18T22:44:47.315Z,99952.94
2022-08-18T22:48:37.229Z,99955.06
2022-08-18T22:52:29.702Z,99968.06
2022-08-18T22:55:35.734Z,99965.22
2022-08-18T22:59:00.147Z,99964.28
2022-08-18T23:02:11.617Z,99962.06
2022-08-18T23:05:38.862Z,99958.78
2022-08-18T23:08:54.926Z,99964.31
2022-08-18T23:12:04.917Z,99964.50
2022-08-18T23:15:44.095Z,99961.22
2022-08-18T23:18:50.952Z,99953.38
2022-08-18T23:22:12.496Z,99948.88
2022-08-18T23:25:36.974Z,99942.88
2022-08-18T23:29:12.428Z,99941.56
2022-08-18T23:32:15.935Z,99942.63
2022-08-18T23:35:20.886Z,99930.50
2022-08-18T23:38:31.963Z,99925.34
2022-08-18T23:41:36.236Z,99928.28
2022-08-18T23:44:43.332Z,99926.72
2022-08-18T23:47:46.655Z,99926.19
2022-08-18T23:50:51.321Z,99929.59
2022-08-18T23:54:20.074Z,99914.88
2022-08-18T23:57:49.207Z,99922.88
